sensor_id;sensor_type;location;lat;lon;timestamp;pressure;altitude;pressure_sealevel;temperature;humidity
70434;BME280;57876;47.792;12.960;2023-05-24T00:00:33;96852.16;;;18.26;52.97
70434;BME280;57876;47.792;12.960;2023-05-24T00:02:57;96836.28;;;18.20;53.00
70434;BME280;57876;47.792;12.960;2023-05-24T00:05:22;96836.53;;;18.27;52.99
70434;BME280;57876;47.792;12.960;2023-05-24T00:07:47;96825.31;;;18.20;53.14
70434;BME280;57876;47.792;12.960;2023-05-24T00:10:11;96823.56;;;18.15;53.06
70434;BME280;57876;47.792;12.960;2023-05-24T00:12:36;96815.69;;;18.14;52.95
70434;BME280;57876;47.792;12.960;2023-05-24T00:15:00;96830.44;;;18.21;52.88
70434;BME280;57876;47.792;12.960;2023-05-24T00:17:25;96830.91;;;18.23;52.75
70434;BME280;57876;47.792;12.960;2023-05-24T00:19:49;96839.88;;;18.33;53.04
70434;BME280;57876;47.792;12.960;2023-05-24T00:22:15;96829.94;;;18.28;52.89
70434;BME280;57876;47.792;12.960;2023-05-24T00:24:40;96821.91;;;18.23;52.80
70434;BME280;57876;47.792;12.960;2023-05-24T00:27:05;96849.63;;;18.42;52.95
70434;BME280;57876;47.792;12.960;2023-05-24T00:29:30;96842.44;;;18.38;52.81
70434;BME280;57876;47.792;12.960;2023-05-24T00:31:57;96832.75;;;18.40;52.88
70434;BME280;57876;47.792;12.960;2023-05-24T00:34:24;96843.81;;;18.44;53.08
70434;BME280;57876;47.792;12.960;2023-05-24T00:36:48;96833.06;;;18.39;52.67
70434;BME280;57876;47.792;12.960;2023-05-24T00:39:13;96816.97;;;18.37;53.06
70434;BME280;57876;47.792;12.960;2023-05-24T00:41:37;96837.34;;;18.48;52.83
70434;BME280;57876;47.792;12.960;2023-05-24T00:44:02;96823.38;;;18.41;52.75
70434;BME280;57876;47.792;12.960;2023-05-24T00:46:28;96820.63;;;18.41;53.00
70434;BME280;57876;47.792;12.960;2023-05-24T00:48:53;96825.13;;;18.46;53.08
70434;BME280;57876;47.792;12.960;2023-05-24T00:51:18;96831.50;;;18.50;53.29
70434;BME280;57876;47.792;12.960;2023-05-24T00:53:45;96823.19;;;18.46;53.17
70434;BME280;57876;47.792;12.960;2023-05-24T00:56:12;96800.72;;;18.32;52.91
70434;BME280;57876;47.792;12.960;2023-05-24T00:58:36;96809.34;;;18.43;52.80
70434;BME280;57876;47.792;12.960;2023-05-24T01:01:02;96825.56;;;18.48;52.97
70434;BME280;57876;47.792;12.960;2023-05-24T01:03:26;96816.09;;;18.45;52.91
70434;BME280;57876;47.792;12.960;2023-05-24T01:05:58;96822.03;;;18.47;52.88
70434;BME280;57876;47.792;12.960;2023-05-24T01:27:26;96814.88;;;18.34;53.19
70434;BME280;57876;47.792;12.960;2023-05-24T01:29:51;96805.28;;;18.28;53.00
70434;BME280;57876;47.792;12.960;2023-05-24T01:32:19;96816.34;;;18.32;53.08
70434;BME280;57876;47.792;12.960;2023-05-24T01:34:43;96814.88;;;18.34;53.08
70434;BME280;57876;47.792;12.960;2023-05-24T01:37:08;96826.00;;;18.38;53.05
70434;BME280;57876;47.792;12.960;2023-05-24T01:39:32;96821.50;;;18.33;53.05
70434;BME280;57876;47.792;12.960;2023-05-24T01:49:58;96825.31;;;18.41;53.12
70434;BME280;57876;47.792;12.960;2023-05-24T01:52:28;96829.66;;;18.42;52.95
70434;BME280;57876;47.792;12.960;2023-05-24T01:54:55;96828.38;;;18.39;53.03
70434;BME280;57876;47.792;12.960;2023-05-24T01:57:21;96830.81;;;18.41;52.93
70434;BME280;57876;47.792;12.960;2023-05-24T01:59:46;96835.47;;;18.40;53.13
70434;BME280;57876;47.792;12.960;2023-05-24T02:02:11;96822.13;;;18.39;53.12
70434;BME280;57876;47.792;12.960;2023-05-24T02:04:36;96811.69;;;18.32;52.96
70434;BME280;57876;47.792;12.960;2023-05-24T02:07:01;96821.31;;;18.38;52.81
70434;BME280;57876;47.792;12.960;2023-05-24T02:09:25;96817.97;;;18.33;52.86
70434;BME280;57876;47.792;12.960;2023-05-24T02:11:50;96827.59;;;18.39;52.98
70434;BME280;57876;47.792;12.960;2023-05-24T02:14:14;96824.53;;;18.40;53.07
70434;BME280;57876;47.792;12.960;2023-05-24T02:16:40;96830.13;;;18.44;53.22
70434;BME280;57876;47.792;12.960;2023-05-24T02:19:05;96830.13;;;18.44;52.92
70434;BME280;57876;47.792;12.960;2023-05-24T02:21:30;96827.59;;;18.39;53.01
70434;BME280;57876;47.792;12.960;2023-05-24T02:23:55;96817.97;;;18.33;53.02
70434;BME280;57876;47.792;12.960;2023-05-24T02:26:22;96835.59;;;18.44;53.00
70434;BME280;57876;47.792;12.960;2023-05-24T02:28:47;96829.84;;;18.37;53.14
70434;BME280;57876;47.792;12.960;2023-05-24T02:31:11;96817.31;;;18.36;53.07
70434;BME280;57876;47.792;12.960;2023-05-24T02:33:36;96827.59;;;18.39;53.23
70434;BME280;57876;47.792;12.960;2023-05-24T02:36:00;96824.38;;;18.37;52.98
70434;BME280;57876;47.792;12.960;2023-05-24T02:38:24;96825.66;;;18.39;53.21
70434;BME280;57876;47.792;12.960;2023-05-24T02:40:49;96835.31;;;18.37;53.02
70434;BME280;57876;47.792;12.960;2023-05-24T02:43:14;96828.72;;;18.38;53.07
70434;BME280;57876;47.792;12.960;2023-05-24T02:45:38;96831.47;;;18.38;52.99
70434;BME280;57876;47.792;12.960;2023-05-24T02:48:02;96821.16;;;18.35;53.10
70434;BME280;57876;47.792;12.960;2023-05-24T02:50:27;96833.97;;;18.43;53.06
70434;BME280;57876;47.792;12.960;2023-05-24T02:52:51;96814.78;;;18.31;52.99
70434;BME280;57876;47.792;12.960;2023-05-24T02:55:15;96825.53;;;18.36;53.00
70434;BME280;57876;47.792;12.960;2023-05-24T02:57:40;96827.78;;;18.34;53.07
70434;BME280;57876;47.792;12.960;2023-05-24T03:00:05;96815.56;;;18.31;53.02
70434;BME280;57876;47.792;12.960;2023-05-24T03:02:34;96808.34;;;18.26;53.20
70434;BME280;57876;47.792;12.960;2023-05-24T03:05:01;96828.25;;;18.36;52.95
70434;BME280;57876;47.792;12.960;2023-05-24T03:07:25;96821.16;;;18.35;53.15
70434;BME280;57876;47.792;12.960;2023-05-24T03:09:50;96826.78;;;18.38;53.22
70434;BME280;57876;47.792;12.960;2023-05-24T03:12:14;96816.50;;;18.35;53.04
70434;BME280;57876;47.792;12.960;2023-05-24T03:14:38;96818.41;;;18.35;53.04
70434;BME280;57876;47.792;12.960;2023-05-24T03:17:03;96819.56;;;18.34;53.17
70434;BME280;57876;47.792;12.960;2023-05-24T03:19:28;96824.53;;;18.40;52.96
70434;BME280;57876;47.792;12.960;2023-05-24T03:21:52;96831.25;;;18.43;53.04
70434;BME280;57876;47.792;12.960;2023-05-24T03:24:16;96828.50;;;18.43;53.09
70434;BME280;57876;47.792;12.960;2023-05-24T03:26:41;96833.34;;;18.46;53.07
70434;BME280;57876;47.792;12.960;2023-05-24T03:29:05;96830.13;;;18.44;52.98
70434;BME280;57876;47.792;12.960;2023-05-24T03:31:30;96837.06;;;18.41;53.12
70434;BME280;57876;47.792;12.960;2023-05-24T03:33:54;96843.81;;;18.44;53.05
70434;BME280;57876;47.792;12.960;2023-05-24T03:36:19;96848.31;;;18.48;52.98
70434;BME280;57876;47.792;12.960;2023-05-24T03:38:44;96847.22;;;18.41;53.16
70434;BME280;57876;47.792;12.960;2023-05-24T03:41:08;96839.22;;;18.36;53.25
70434;BME280;57876;47.792;12.960;2023-05-24T03:43:33;96850.09;;;18.44;52.76
70434;BME280;57876;47.792;12.960;2023-05-24T03:45:57;96833.59;;;18.32;53.00
70434;BME280;57876;47.792;12.960;2023-05-24T03:48:21;96840.47;;;18.38;53.04
70434;BME280;57876;47.792;12.960;2023-05-24T03:50:52;96842.63;;;18.33;53.18
70434;BME280;57876;47.792;12.960;2023-05-24T03:53:17;96847.06;;;18.37;52.98
70434;BME280;57876;47.792;12.960;2023-05-24T03:55:41;96862.31;;;18.47;53.16
70434;BME280;57876;47.792;12.960;2023-05-24T03:58:05;96859.56;;;18.47;53.14
70434;BME280;57876;47.792;12.960;2023-05-24T04:00:30;96858.78;;;18.46;53.00
70434;BME280;57876;47.792;12.960;2023-05-24T04:02:55;96851.09;;;18.40;53.08
70434;BME280;57876;47.792;12.960;2023-05-24T04:05:19;96848.53;;;18.35;53.21
70434;BME280;57876;47.792;12.960;2023-05-24T04:07:44;96844.22;;;18.34;53.07
70434;BME280;57876;47.792;12.960;2023-05-24T04:10:09;96838.63;;;18.30;52.97
70434;BME280;57876;47.792;12.960;2023-05-24T04:12:34;96838.63;;;18.30;53.12
70434;BME280;57876;47.792;12.960;2023-05-24T04:14:59;96849.38;;;18.35;53.12
70434;BME280;57876;47.792;12.960;2023-05-24T04:17:23;96859.31;;;18.40;52.93
70434;BME280;57876;47.792;12.960;2023-05-24T04:19:48;96866.41;;;18.41;53.08
70434;BME280;57876;47.792;12.960;2023-05-24T04:22:13;96869.13;;;18.41;53.17
70434;BME280;57876;47.792;12.960;2023-05-24T04:24:37;96861.25;;;18.39;53.09
70434;BME280;57876;47.792;12.960;2023-05-24T04:27:02;96843.94;;;18.26;53.23
70434;BME280;57876;47.792;12.960;2023-05-24T04:30:16;96860.97;;;18.32;53.04
70434;BME280;57876;47.792;12.960;2023-05-24T04:32:44;96847.47;;;18.27;53.13
70434;BME280;57876;47.792;12.960;2023-05-24T04:35:09;96878.47;;;18.40;53.10
70434;BME280;57876;47.792;12.960;2023-05-24T04:40:50;96859.56;;;18.26;53.30
70434;BME280;57876;47.792;12.960;2023-05-24T04:43:24;96870.81;;;18.33;52.86
70434;BME280;57876;47.792;12.960;2023-05-24T04:45:52;96865.53;;;18.28;53.12
70434;BME280;57876;47.792;12.960;2023-05-24T04:48:20;96890.38;;;18.44;52.96
70434;BME280;57876;47.792;12.960;2023-05-24T04:50:44;96882.34;;;18.39;53.17
70434;BME280;57876;47.792;12.960;2023-05-24T04:53:11;96899.72;;;18.43;53.17
70434;BME280;57876;47.792;12.960;2023-05-24T04:55:37;96883.03;;;18.36;53.07
70434;BME280;57876;47.792;12.960;2023-05-24T04:58:02;96891.97;;;18.45;53.17
70434;BME280;57876;47.792;12.960;2023-05-24T05:00:26;96891.16;;;18.44;53.04
70434;BME280;57876;47.792;12.960;2023-05-24T05:02:50;96880.53;;;18.43;52.98
70434;BME280;57876;47.792;12.960;2023-05-24T05:05:15;96884.91;;;18.44;53.08
70434;BME280;57876;47.792;12.960;2023-05-24T05:07:39;96895.84;;;18.44;52.92
70434;BME280;57876;47.792;12.960;2023-05-24T05:10:04;96894.91;;;18.40;53.09
70434;BME280;57876;47.792;12.960;2023-05-24T05:12:28;96887.03;;;18.38;52.99
70434;BME280;57876;47.792;12.960;2023-05-24T05:14:53;96896.53;;;18.41;53.08
70434;BME280;57876;47.792;12.960;2023-05-24T05:17:18;96895.72;;;18.40;53.17
70434;BME280;57876;47.792;12.960;2023-05-24T05:19:45;96903.59;;;18.42;53.16
70434;BME280;57876;47.792;12.960;2023-05-24T05:22:09;96916.91;;;18.52;53.07
70434;BME280;57876;47.792;12.960;2023-05-24T05:24:34;96912.41;;;18.47;52.81
70434;BME280;57876;47.792;12.960;2023-05-24T05:26:58;96894.91;;;18.40;53.10
70434;BME280;57876;47.792;12.960;2023-05-24T05:29:22;96900.66;;;18.47;53.13
70434;BME280;57876;47.792;12.960;2023-05-24T05:31:49;96907.72;;;18.48;53.13
70434;BME280;57876;47.792;12.960;2023-05-24T05:34:14;96886.44;;;18.33;53.24
70434;BME280;57876;47.792;12.960;2023-05-24T05:36:38;96898.25;;;18.45;53.18
70434;BME280;57876;47.792;12.960;2023-05-24T05:39:03;96895.06;;;18.43;53.24
70434;BME280;57876;47.792;12.960;2023-05-24T05:41:28;96897.44;;;18.45;53.03
70434;BME280;57876;47.792;12.960;2023-05-24T05:43:52;96891.03;;;18.41;53.26
70434;BME280;57876;47.792;12.960;2023-05-24T05:46:19;96895.50;;;18.45;53.08
70434;BME280;57876;47.792;12.960;2023-05-24T05:48:45;96874.66;;;18.32;53.24
70434;BME280;57876;47.792;12.960;2023-05-24T05:51:10;96884.16;;;18.35;53.00
70434;BME280;57876;47.792;12.960;2023-05-24T05:53:35;96881.88;;;18.37;52.98
70434;BME280;57876;47.792;12.960;2023-05-24T05:55:59;96892.31;;;18.43;53.06
70434;BME280;57876;47.792;12.960;2023-05-24T05:58:23;96884.63;;;18.37;53.17
70434;BME280;57876;47.792;12.960;2023-05-24T06:00:48;96902.91;;;18.45;53.29
70434;BME280;57876;47.792;12.960;2023-05-24T06:03:12;96902.91;;;18.45;53.17
70434;BME280;57876;47.792;12.960;2023-05-24T06:05:36;96900.06;;;18.41;53.29
70434;BME280;57876;47.792;12.960;2023-05-24T06:08:01;96896.38;;;18.37;53.19
70434;BME280;57876;47.792;12.960;2023-05-24T06:10:25;96906.34;;;18.42;53.19
70434;BME280;57876;47.792;12.960;2023-05-24T06:12:50;96905.19;;;18.43;53.31
70434;BME280;57876;47.792;12.960;2023-05-24T06:15:41;96905.66;;;18.45;53.24
70434;BME280;57876;47.792;12.960;2023-05-24T06:18:06;96901.31;;;18.44;53.09
70434;BME280;57876;47.792;12.960;2023-05-24T06:20:30;96910.47;;;18.48;53.20
70434;BME280;57876;47.792;12.960;2023-05-24T06:22:55;96893.44;;;18.42;52.99
70434;BME280;57876;47.792;12.960;2023-05-24T06:25:20;96895.38;;;18.42;53.13
70434;BME280;57876;47.792;12.960;2023-05-24T06:27:45;96908.19;;;18.50;53.13
70434;BME280;57876;47.792;12.960;2023-05-24T06:30:13;96908.56;;;18.48;53.17
70434;BME280;57876;47.792;12.960;2023-05-24T06:32:52;96908.69;;;18.52;53.11
70434;BME280;57876;47.792;12.960;2023-05-24T06:35:39;96890.88;;;18.37;53.29
70434;BME280;57876;47.792;12.960;2023-05-24T06:38:06;96917.69;;;18.53;52.99
70434;BME280;57876;47.792;12.960;2023-05-24T06:40:30;96896.03;;;18.39;53.35
70434;BME280;57876;47.792;12.960;2023-05-24T06:42:55;96902.31;;;18.39;53.37
70434;BME280;57876;47.792;12.960;2023-05-24T06:45:21;96900.38;;;18.40;53.05
70434;BME280;57876;47.792;12.960;2023-05-24T06:47:46;96912.41;;;18.47;53.21
70434;BME280;57876;47.792;12.960;2023-05-24T06:50:16;96900.38;;;18.40;53.06
70434;BME280;57876;47.792;12.960;2023-05-24T06:52:41;96897.19;;;18.38;52.88
70434;BME280;57876;47.792;12.960;2023-05-24T06:55:06;96886.88;;;18.35;53.06
70434;BME280;57876;47.792;12.960;2023-05-24T06:57:30;96912.75;;;18.46;53.11
70434;BME280;57876;47.792;12.960;2023-05-24T06:59:55;96903.78;;;18.37;53.02
70434;BME280;57876;47.792;12.960;2023-05-24T07:02:20;96923.53;;;18.51;53.27
70434;BME280;57876;47.792;12.960;2023-05-24T07:04:49;96896.38;;;18.37;52.88
70434;BME280;57876;47.792;12.960;2023-05-24T07:07:14;96896.72;;;18.36;53.29
70434;BME280;57876;47.792;12.960;2023-05-24T07:09:41;96905.84;;;18.40;52.94
70434;BME280;57876;47.792;12.960;2023-05-24T07:12:05;96903.78;;;18.37;53.23
70434;BME280;57876;47.792;12.960;2023-05-24T07:14:30;96903.94;;;18.40;53.16
70434;BME280;57876;47.792;12.960;2023-05-24T07:16:54;96892.50;;;18.38;53.11
70434;BME280;57876;47.792;12.960;2023-05-24T07:19:20;96919.50;;;18.48;53.13
70434;BME280;57876;47.792;12.960;2023-05-24T07:21:45;96907.47;;;18.41;52.87
70434;BME280;57876;47.792;12.960;2023-05-24T07:24:09;96892.34;;;18.35;53.05
70434;BME280;57876;47.792;12.960;2023-05-24T07:26:33;96916.50;;;18.41;53.25
70434;BME280;57876;47.792;12.960;2023-05-24T07:28:58;96911.50;;;18.43;53.10
70434;BME280;57876;47.792;12.960;2023-05-24T07:31:22;96915.03;;;18.44;52.94
70434;BME280;57876;47.792;12.960;2023-05-24T07:33:47;96904.94;;;18.36;53.22
70434;BME280;57876;47.792;12.960;2023-05-24T07:36:12;96916.38;;;18.38;53.25
70434;BME280;57876;47.792;12.960;2023-05-24T07:38:37;96914.06;;;18.40;52.99
70434;BME280;57876;47.792;12.960;2023-05-24T07:41:02;96916.00;;;18.39;53.21
70434;BME280;57876;47.792;12.960;2023-05-24T07:43:28;96905.53;;;18.41;52.76
70434;BME280;57876;47.792;12.960;2023-05-24T07:45:52;96900.06;;;18.41;53.04
70434;BME280;57876;47.792;12.960;2023-05-24T07:48:18;96904.53;;;18.46;52.78
70434;BME280;57876;47.792;12.960;2023-05-24T07:50:42;96892.03;;;18.36;52.95
70434;BME280;57876;47.792;12.960;2023-05-24T07:53:11;96905.94;;;18.52;53.18
70434;BME280;57876;47.792;12.960;2023-05-24T07:55:35;96899.72;;;18.43;53.12
70434;BME280;57876;47.792;12.960;2023-05-24T07:58:00;96899.88;;;18.46;53.23
70434;BME280;57876;47.792;12.960;2023-05-24T08:00:24;96902.53;;;18.55;53.15
70434;BME280;57876;47.792;12.960;2023-05-24T08:02:49;96889.22;;;18.45;53.06
70434;BME280;57876;47.792;12.960;2023-05-24T08:05:14;96888.91;;;18.46;52.98
70434;BME280;57876;47.792;12.960;2023-05-24T08:07:40;96887.44;;;18.49;53.27
70434;BME280;57876;47.792;12.960;2023-05-24T08:10:05;96874.75;;;18.44;53.21
70434;BME280;57876;47.792;12.960;2023-05-24T08:12:30;96891.56;;;18.55;53.19
70434;BME280;57876;47.792;12.960;2023-05-24T08:14:54;96893.84;;;18.53;53.01
70434;BME280;57876;47.792;12.960;2023-05-24T08:17:19;96898.66;;;18.56;53.05
70434;BME280;57876;47.792;12.960;2023-05-24T08:19:44;96887.25;;;18.54;52.91
70434;BME280;57876;47.792;12.960;2023-05-24T08:22:08;96884.81;;;18.53;53.00
70434;BME280;57876;47.792;12.960;2023-05-24T08:24:32;96876.31;;;18.45;52.95
70434;BME280;57876;47.792;12.960;2023-05-24T08:26:57;96878.06;;;18.50;52.95
70434;BME280;57876;47.792;12.960;2023-05-24T08:29:21;96872.47;;;18.46;52.95
70434;BME280;57876;47.792;12.960;2023-05-24T08:31:47;96873.59;;;18.45;52.90
70434;BME280;57876;47.792;12.960;2023-05-24T08:34:11;96872.31;;;18.43;52.98
70434;BME280;57876;47.792;12.960;2023-05-24T08:36:35;96872.78;;;18.45;53.07
70434;BME280;57876;47.792;12.960;2023-05-24T08:39:00;96886.78;;;18.52;52.93
70434;BME280;57876;47.792;12.960;2023-05-24T08:41:24;96895.47;;;18.54;52.92
70434;BME280;57876;47.792;12.960;2023-05-24T08:43:59;96876.22;;;18.42;53.07
70434;BME280;57876;47.792;12.960;2023-05-24T08:46:28;96871.69;;;18.46;52.98
70434;BME280;57876;47.792;12.960;2023-05-24T08:49:01;96869.81;;;18.38;53.06
70434;BME280;57876;47.792;12.960;2023-05-24T08:51:30;96897.41;;;18.54;52.79
70434;BME280;57876;47.792;12.960;2023-05-24T08:53:57;96887.63;;;18.44;52.89
70434;BME280;57876;47.792;12.960;2023-05-24T08:56:42;96891.66;;;18.46;53.13
70434;BME280;57876;47.792;12.960;2023-05-24T08:59:07;96885.56;;;18.41;53.08
70434;BME280;57876;47.792;12.960;2023-05-24T09:01:32;96903.06;;;18.48;52.88
70434;BME280;57876;47.792;12.960;2023-05-24T09:03:58;96904.19;;;18.47;52.98
70434;BME280;57876;47.792;12.960;2023-05-24T09:06:23;96893.59;;;18.46;52.77
70434;BME280;57876;47.792;12.960;2023-05-24T09:08:48;96894.91;;;18.40;52.95
70434;BME280;57876;47.792;12.960;2023-05-24T09:11:15;96899.50;;;18.48;53.07
70434;BME280;57876;47.792;12.960;2023-05-24T09:13:41;96883.16;;;18.39;53.03
70434;BME280;57876;47.792;12.960;2023-05-24T09:23:02;96884.91;;;18.44;52.92
70434;BME280;57876;47.792;12.960;2023-05-24T09:25:27;96878.63;;;18.43;52.72
70434;BME280;57876;47.792;12.960;2023-05-24T09:27:55;96897.84;;;18.56;52.82
70434;BME280;57876;47.792;12.960;2023-05-24T09:30:19;96880.81;;;18.50;53.00
70434;BME280;57876;47.792;12.960;2023-05-24T09:32:55;96886.91;;;18.56;52.89
70434;BME280;57876;47.792;12.960;2023-05-24T09:35:20;96899.47;;;18.57;53.05
70434;BME280;57876;47.792;12.960;2023-05-24T09:37:45;96882.88;;;18.53;52.92
70434;BME280;57876;47.792;12.960;2023-05-24T09:40:17;96891.56;;;18.55;52.69
70434;BME280;57876;47.792;12.960;2023-05-24T09:42:43;96881.28;;;18.52;52.76
70434;BME280;57876;47.792;12.960;2023-05-24T09:45:28;96892.38;;;18.56;52.95
70434;BME280;57876;47.792;12.960;2023-05-24T09:47:52;96884.03;;;18.52;52.85
70434;BME280;57876;47.792;12.960;2023-05-24T09:50:19;96882.09;;;18.53;52.92
70434;BME280;57876;47.792;12.960;2023-05-24T09:52:47;96894.00;;;18.57;52.82
70434;BME280;57876;47.792;12.960;2023-05-24T09:55:24;96886.56;;;18.57;52.88
70434;BME280;57876;47.792;12.960;2023-05-24T09:58:06;96882.63;;;18.46;52.90
70434;BME280;57876;47.792;12.960;2023-05-24T10:00:39;96884.03;;;18.52;53.00
70434;BME280;57876;47.792;12.960;2023-05-24T10:03:05;96884.50;;;18.54;52.89
70434;BME280;57876;47.792;12.960;2023-05-24T10:05:30;96872.13;;;18.48;52.69
70434;BME280;57876;47.792;12.960;2023-05-24T10:07:56;96882.88;;;18.53;52.93
70434;BME280;57876;47.792;12.960;2023-05-24T10:10:27;96865.72;;;18.44;52.96
70434;BME280;57876;47.792;12.960;2023-05-24T10:12:55;96875.81;;;18.52;52.93
70434;BME280;57876;47.792;12.960;2023-05-24T10:15:20;96863.66;;;18.41;52.75
70434;BME280;57876;47.792;12.960;2023-05-24T10:18:14;96874.88;;;18.48;52.72
70434;BME280;57876;47.792;12.960;2023-05-24T10:24:21;96849.69;;;18.34;52.57
70434;BME280;57876;47.792;12.960;2023-05-24T10:26:58;96858.56;;;18.31;52.75
70434;BME280;57876;47.792;12.960;2023-05-24T10:32:11;96846.00;;;18.30;53.03
70434;BME280;57876;47.792;12.960;2023-05-24T10:34:37;96858.84;;;18.38;52.75
70434;BME280;57876;47.792;12.960;2023-05-24T10:37:02;96863.00;;;18.44;52.84
70434;BME280;57876;47.792;12.960;2023-05-24T10:39:26;96872.00;;;18.44;52.93
70434;BME280;57876;47.792;12.960;2023-05-24T10:41:51;96851.75;;;18.37;52.80
70434;BME280;57876;47.792;12.960;2023-05-24T10:44:19;96873.59;;;18.45;52.66
70434;BME280;57876;47.792;12.960;2023-05-24T10:49:31;96865.72;;;18.44;52.84
70434;BME280;57876;47.792;12.960;2023-05-24T10:52:00;96876.59;;;18.53;52.73
70434;BME280;57876;47.792;12.960;2023-05-24T10:54:25;96868.59;;;18.47;52.75
70434;BME280;57876;47.792;12.960;2023-05-24T10:56:50;96863.91;;;18.48;52.86
70434;BME280;57876;47.792;12.960;2023-05-24T10:59:41;96871.13;;;18.53;52.80
70434;BME280;57876;47.792;12.960;2023-05-24T11:02:41;96868.06;;;18.54;52.83
70434;BME280;57876;47.792;12.960;2023-05-24T11:05:11;96867.00;;;18.46;52.83
70434;BME280;57876;47.792;12.960;2023-05-24T11:07:46;96871.13;;;18.53;53.02
70434;BME280;57876;47.792;12.960;2023-05-24T11:10:36;96855.69;;;18.48;52.64
70434;BME280;57876;47.792;12.960;2023-05-24T11:13:05;96852.63;;;18.49;52.71
70434;BME280;57876;47.792;12.960;2023-05-24T11:15:30;96851.47;;;18.51;52.87
70434;BME280;57876;47.792;12.960;2023-05-24T11:20:37;96864.84;;;18.52;53.11
70434;BME280;57876;47.792;12.960;2023-05-24T11:23:02;96847.47;;;18.48;52.97
70434;BME280;57876;47.792;12.960;2023-05-24T11:25:27;96858.91;;;18.50;52.93
70434;BME280;57876;47.792;12.960;2023-05-24T11:27:52;96850.09;;;18.44;52.89
70434;BME280;57876;47.792;12.960;2023-05-24T11:30:18;96848.81;;;18.42;52.68
70434;BME280;57876;47.792;12.960;2023-05-24T11:32:46;96841.41;;;18.42;52.74
70434;BME280;57876;47.792;12.960;2023-05-24T11:35:11;96845.97;;;18.38;52.77
70434;BME280;57876;47.792;12.960;2023-05-24T11:37:36;96858.78;;;18.46;52.83
70434;BME280;57876;47.792;12.960;2023-05-24T11:40:01;96842.75;;;18.36;52.81
70434;BME280;57876;47.792;12.960;2023-05-24T11:42:28;96851.91;;;18.40;52.91
70434;BME280;57876;47.792;12.960;2023-05-24T11:44:52;96838.25;;;18.32;52.87
70434;BME280;57876;47.792;12.960;2023-05-24T11:47:19;96838.06;;;18.37;52.90
70434;BME280;57876;47.792;12.960;2023-05-24T11:49:48;96852.03;;;18.44;52.88
70434;BME280;57876;47.792;12.960;2023-05-24T11:52:13;96846.28;;;18.37;52.86
70434;BME280;57876;47.792;12.960;2023-05-24T11:54:37;96854.78;;;18.44;52.90
70434;BME280;57876;47.792;12.960;2023-05-24T11:57:03;96849.81;;;18.37;52.72
70434;BME280;57876;47.792;12.960;2023-05-24T11:59:28;96861.72;;;18.41;52.77
70434;BME280;57876;47.792;12.960;2023-05-24T12:02:00;96857.50;;;18.44;52.76
70434;BME280;57876;47.792;12.960;2023-05-24T12:04:26;96872.31;;;18.43;53.01
70434;BME280;57876;47.792;12.960;2023-05-24T12:06:51;96846.94;;;18.34;52.64
70434;BME280;57876;47.792;12.960;2023-05-24T12:09:15;96848.41;;;18.31;52.77
70434;BME280;57876;47.792;12.960;2023-05-24T12:11:42;96864.09;;;18.43;52.85
70434;BME280;57876;47.792;12.960;2023-05-24T12:14:23;96853.38;;;18.38;53.01
70434;BME280;57876;47.792;12.960;2023-05-24T12:16:53;96856.91;;;18.38;52.73
70434;BME280;57876;47.792;12.960;2023-05-24T12:19:19;96836.53;;;18.27;53.05
70434;BME280;57876;47.792;12.960;2023-05-24T12:21:44;96852.22;;;18.39;52.93
70434;BME280;57876;47.792;12.960;2023-05-24T12:24:11;96852.22;;;18.39;52.81
70434;BME280;57876;47.792;12.960;2023-05-24T12:26:39;96841.66;;;18.29;52.78
70434;BME280;57876;47.792;12.960;2023-05-24T12:29:03;96834.13;;;18.25;52.84
70434;BME280;57876;47.792;12.960;2023-05-24T12:31:28;96839.13;;;18.23;52.98
70434;BME280;57876;47.792;12.960;2023-05-24T12:33:56;96860.03;;;18.28;52.83
70434;BME280;57876;47.792;12.960;2023-05-24T12:36:21;96844.00;;;18.18;52.80
70434;BME280;57876;47.792;12.960;2023-05-24T12:38:45;96848.69;;;18.17;52.87
70434;BME280;57876;47.792;12.960;2023-05-24T12:41:10;96853.38;;;18.17;52.88
70434;BME280;57876;47.792;12.960;2023-05-24T12:43:35;96866.97;;;18.25;53.00
70434;BME280;57876;47.792;12.960;2023-05-24T12:46:00;96858.97;;;18.20;52.65
70434;BME280;57876;47.792;12.960;2023-05-24T12:48:24;96855.75;;;18.18;52.87
70434;BME280;57876;47.792;12.960;2023-05-24T12:50:49;96874.41;;;18.25;52.85
70434;BME280;57876;47.792;12.960;2023-05-24T12:53:14;96868.25;;;18.28;52.80
70434;BME280;57876;47.792;12.960;2023-05-24T12:55:38;96890.09;;;18.37;52.90
70434;BME280;57876;47.792;12.960;2023-05-24T12:58:03;96891.25;;;18.36;53.06
70434;BME280;57876;47.792;12.960;2023-05-24T13:00:29;96876.13;;;18.30;52.88
70434;BME280;57876;47.792;12.960;2023-05-24T13:02:55;96888.34;;;18.32;52.79
70434;BME280;57876;47.792;12.960;2023-05-24T13:05:21;96893.31;;;18.39;52.77
70434;BME280;57876;47.792;12.960;2023-05-24T13:07:50;96875.00;;;18.31;52.79
70434;BME280;57876;47.792;12.960;2023-05-24T13:10:14;96890.56;;;18.39;53.02
70434;BME280;57876;47.792;12.960;2023-05-24T13:12:39;96892.63;;;18.42;52.90
70434;BME280;57876;47.792;12.960;2023-05-24T13:15:08;96877.13;;;18.25;52.82
70434;BME280;57876;47.792;12.960;2023-05-24T13:17:33;96895.09;;;18.35;52.90
70434;BME280;57876;47.792;12.960;2023-05-24T13:20:00;96895.56;;;18.37;52.83
70434;BME280;57876;47.792;12.960;2023-05-24T13:22:27;96909.53;;;18.44;52.88
70434;BME280;57876;47.792;12.960;2023-05-24T13:24:51;96910.22;;;18.41;52.88
70434;BME280;57876;47.792;12.960;2023-05-24T13:27:16;96912.28;;;18.44;52.99
70434;BME280;57876;47.792;12.960;2023-05-24T13:29:40;96912.78;;;18.37;52.72
70434;BME280;57876;47.792;12.960;2023-05-24T13:32:05;96914.25;;;18.35;52.57
70434;BME280;57876;47.792;12.960;2023-05-24T13:34:29;96917.97;;;18.39;52.67